Time;durP1;ratioP1;P1;durP2;ratioP2;P2;SDS_P1;SDS_P2;PMS_P1;PMS_P2;Temp;Humidity;BMP_temperature;BMP_pressure;BME280_temperature;BME280_humidity;BME280_pressure;Samples;Min_cycle;Max_cycle;Signal;HPM_P1;HPM_P2
2021/12/19 00:00:09;;;;;;;7.57;4.47;;;;;;;6.24;100.00;102294.06;6013985;29;20077;-94
2021/12/19 00:09:55;;;;;;;7.40;3.97;;;;;;;6.24;100.00;102282.94;6000449;29;20046;-94
2021/12/19 00:12:58;;;;;;;7.15;4.28;;;;;;;6.10;100.00;102278.22;6008082;29;20540;-93
2021/12/19 00:16:00;;;;;;;7.72;4.53;;;;;;;6.05;100.00;102277.53;6024123;29;20049;-94
2021/12/19 00:19:16;;;;;;;7.55;5.07;;;;;;;6.08;100.00;102269.72;6008537;29;20089;-93
2021/12/19 00:22:18;;;;;;;7.10;4.70;;;;;;;5.99;100.00;102276.00;6030866;29;20034;-94
2021/12/19 00:25:26;;;;;;;8.35;5.28;;;;;;;5.96;100.00;102270.97;5995202;29;20042;-94
2021/12/19 00:28:29;;;;;;;10.25;5.43;;;;;;;6.01;100.00;102270.81;6004082;29;20054;-94
2021/12/19 00:31:32;;;;;;;10.70;5.72;;;;;;;6.03;100.00;102251.03;6032644;29;20054;-94
2021/12/19 00:34:34;;;;;;;8.07;5.18;;;;;;;5.96;100.00;102242.69;6009196;29;20479;-94
2021/12/19 00:37:36;;;;;;;10.95;6.40;;;;;;;6.00;100.00;102248.56;6010550;29;20078;-94
2021/12/19 00:40:39;;;;;;;12.05;5.97;;;;;;;5.96;100.00;102246.97;6029841;29;20045;-95
2021/12/19 00:47:17;;;;;;;10.40;6.18;;;;;;;5.89;100.00;102245.44;6049254;29;20130;-94
2021/12/19 00:50:20;;;;;;;10.82;6.53;;;;;;;5.91;100.00;102243.69;6010040;29;20061;-94
2021/12/19 00:53:24;;;;;;;11.32;6.50;;;;;;;5.85;100.00;102234.44;6020109;29;20083;-94
2021/12/19 00:56:27;;;;;;;10.55;6.65;;;;;;;5.89;100.00;102230.91;6018164;29;20509;-94
2021/12/19 00:59:29;;;;;;;11.32;6.57;;;;;;;5.81;100.00;102241.41;6028267;29;20061;-94
2021/12/19 01:02:31;;;;;;;11.00;6.43;;;;;;;5.94;100.00;102230.78;6021487;29;20071;-94
2021/12/19 01:05:37;;;;;;;10.55;6.80;;;;;;;5.99;100.00;102219.47;6027331;29;20105;-94
2021/12/19 01:08:39;;;;;;;11.23;6.80;;;;;;;5.95;100.00;102232.47;6024899;29;20110;-94
2021/12/19 01:11:41;;;;;;;10.80;6.10;;;;;;;5.88;100.00;102218.91;6033845;29;20045;-94
2021/12/19 01:14:43;;;;;;;10.63;6.45;;;;;;;5.89;100.00;102225.75;6018459;29;20068;-94
2021/12/19 01:17:45;;;;;;;11.45;6.10;;;;;;;5.89;100.00;102224.91;6042052;29;20061;-94
2021/12/19 01:20:48;;;;;;;10.45;5.85;;;;;;;5.85;100.00;102213.06;6020513;29;20105;-94
2021/12/19 01:23:50;;;;;;;10.88;5.85;;;;;;;5.88;100.00;102203.50;6011934;29;20081;-93
2021/12/19 01:26:53;;;;;;;10.00;5.82;;;;;;;5.82;100.00;102199.41;6115106;24;20024;-94
2021/12/19 01:29:54;;;;;;;11.18;6.30;;;;;;;5.77;100.00;102203.03;6078710;29;20116;-94
2021/12/19 01:32:59;;;;;;;10.32;5.70;;;;;;;5.83;100.00;102195.94;6085085;29;20020;-94
2021/12/19 01:36:01;;;;;;;9.68;5.60;;;;;;;5.77;100.00;102196.16;6069402;29;20152;-94
2021/12/19 01:39:04;;;;;;;12.95;6.38;;;;;;;5.75;100.00;102190.22;6064322;29;20049;-94
2021/12/19 01:42:10;;;;;;;11.18;5.28;;;;;;;5.76;100.00;102186.78;6064638;29;20392;-94
2021/12/19 01:45:20;;;;;;;11.15;5.43;;;;;;;5.79;100.00;102178.13;6089923;29;20052;-93
2021/12/19 01:48:23;;;;;;;9.77;5.50;;;;;;;5.83;100.00;102177.13;6063222;29;20072;-94
2021/12/19 01:51:25;;;;;;;9.38;5.55;;;;;;;5.88;100.00;102167.53;6053964;29;20045;-93
2021/12/19 01:54:28;;;;;;;7.90;5.47;;;;;;;5.82;100.00;102160.84;6062024;29;20048;-93
2021/12/19 01:57:31;;;;;;;9.27;4.72;;;;;;;5.80;100.00;102161.81;6091041;29;20045;-94
2021/12/19 02:00:46;;;;;;;7.63;5.05;;;;;;;5.80;100.00;102142.06;6075619;29;20056;-94
2021/12/19 02:03:49;;;;;;;10.57;5.15;;;;;;;5.88;100.00;102152.09;6057025;29;20487;-94
2021/12/19 02:06:51;;;;;;;10.45;5.10;;;;;;;5.79;100.00;102150.69;6072942;29;20372;-94
2021/12/19 02:09:53;;;;;;;9.30;5.20;;;;;;;5.91;100.00;102140.88;6065144;29;20053;-94
2021/12/19 02:12:58;;;;;;;9.85;5.25;;;;;;;5.98;100.00;102148.38;6053350;29;20056;-94
2021/12/19 02:16:00;;;;;;;11.07;5.32;;;;;;;5.88;100.00;102146.97;6039834;29;20049;-94
2021/12/19 02:19:05;;;;;;;9.05;4.75;;;;;;;5.88;100.00;102135.84;6059175;29;20060;-94
2021/12/19 02:22:07;;;;;;;9.80;4.95;;;;;;;5.99;100.00;102133.81;6078550;29;20112;-94
2021/12/19 02:25:10;;;;;;;12.68;5.35;;;;;;;5.98;100.00;102119.25;6080533;29;20048;-94
2021/12/19 02:28:12;;;;;;;10.80;4.80;;;;;;;5.94;100.00;102121.09;6088255;29;20041;-94
2021/12/19 02:31:14;;;;;;;9.45;5.00;;;;;;;5.92;100.00;102119.44;6091632;29;20040;-94
2021/12/19 02:34:21;;;;;;;13.02;5.97;;;;;;;6.01;100.00;102121.72;6064291;29;20429;-94
2021/12/19 02:50:52;;;;;;;10.48;5.05;;;;;;;5.92;100.00;102101.47;6065629;29;20382;-94
2021/12/19 02:53:56;;;;;;;9.77;4.68;;;;;;;5.95;100.00;102091.09;6081912;29;20544;-94
2021/12/19 02:56:58;;;;;;;9.20;4.93;;;;;;;5.97;100.00;102084.19;6051597;29;20495;-94
2021/12/19 03:00:01;;;;;;;8.73;4.82;;;;;;;5.99;100.00;102082.41;6051128;29;20104;-94
2021/12/19 03:03:03;;;;;;;11.82;5.55;;;;;;;5.94;100.00;102071.44;6052999;29;20777;-94
2021/12/19 03:06:06;;;;;;;10.93;5.95;;;;;;;5.94;100.00;102071.44;6067807;29;20041;-94
2021/12/19 03:09:09;;;;;;;7.78;4.68;;;;;;;5.97;100.00;102059.31;6074568;29;20056;-94
2021/12/19 03:18:52;;;;;;;8.48;5.13;;;;;;;6.04;100.00;102077.94;6068927;29;20048;-94
2021/12/19 03:21:55;;;;;;;10.85;5.63;;;;;;;6.00;100.00;102068.66;6082313;29;20045;-94
2021/12/19 03:24:57;;;;;;;8.27;5.03;;;;;;;6.06;100.00;102071.00;6068837;29;20049;-94
2021/12/19 03:28:00;;;;;;;10.32;5.15;;;;;;;6.02;100.00;102061.72;6069063;29;20037;-94
2021/12/19 03:31:04;;;;;;;11.63;5.03;;;;;;;6.01;100.00;102067.75;6055109;29;20079;-94
2021/12/19 03:34:06;;;;;;;7.97;5.22;;;;;;;6.00;100.00;102045.50;6049172;29;20068;-94
2021/12/19 03:37:08;;;;;;;8.07;4.72;;;;;;;5.98;100.00;102052.44;6050011;29;20052;-94
2021/12/19 03:40:13;;;;;;;10.18;5.10;;;;;;;5.95;100.00;102042.25;6051246;29;20527;-94
2021/12/19 03:43:18;;;;;;;9.55;4.88;;;;;;;5.88;100.00;102043.34;6074784;29;20303;-94
2021/12/19 03:46:20;;;;;;;8.80;4.78;;;;;;;5.91;100.00;102040.66;6072364;29;20053;-94
2021/12/19 03:49:23;;;;;;;7.55;4.28;;;;;;;5.95;100.00;102052.53;6073593;29;20488;-93
2021/12/19 03:52:25;;;;;;;8.27;4.55;;;;;;;6.02;100.00;102043.72;6064173;29;20045;-93
2021/12/19 03:55:28;;;;;;;8.25;4.70;;;;;;;6.01;100.00;102047.19;6042440;29;20041;-94
2021/12/19 03:58:30;;;;;;;8.63;4.60;;;;;;;6.02;100.00;102046.31;6070962;29;20049;-94
2021/12/19 04:01:33;;;;;;;9.82;4.18;;;;;;;6.06;100.00;102047.03;6082112;29;20105;-94
2021/12/19 04:04:38;;;;;;;8.25;4.57;;;;;;;6.07;100.00;102039.25;6074813;29;20503;-94
2021/12/19 04:07:40;;;;;;;8.90;4.63;;;;;;;5.97;100.00;102033.59;6036180;29;20049;-94
2021/12/19 04:10:42;;;;;;;9.00;4.47;;;;;;;6.00;100.00;102040.38;6082372;29;20044;-94
2021/12/19 04:13:44;;;;;;;6.95;4.07;;;;;;;6.06;100.00;102016.16;6082399;29;20504;-94
2021/12/19 04:16:46;;;;;;;7.63;3.90;;;;;;;6.06;100.00;102008.47;6067200;29;20059;-94
2021/12/19 04:20:02;;;;;;;6.47;3.92;;;;;;;6.00;100.00;102014.66;6072306;29;20195;-94
2021/12/19 04:23:04;;;;;;;7.00;4.05;;;;;;;5.97;100.00;102007.06;6060536;29;20051;-94
2021/12/19 04:26:07;;;;;;;9.98;3.80;;;;;;;5.95;100.00;102006.28;6055648;29;20045;-94
2021/12/19 04:29:09;;;;;;;7.00;3.50;;;;;;;5.99;100.00;102013.00;6055093;29;20045;-93
2021/12/19 04:32:12;;;;;;;5.82;3.35;;;;;;;5.99;100.00;102007.88;6081749;29;20049;-94
2021/12/19 04:35:14;;;;;;;8.35;3.75;;;;;;;5.98;100.00;102001.03;6066826;29;20757;-93
2021/12/19 04:51:38;;;;;;;7.25;3.00;;;;;;;6.01;100.00;101994.06;6072504;29;20077;-94
2021/12/19 04:58:14;;;;;;;5.50;2.88;;;;;;;6.00;100.00;101983.81;6080707;29;20096;-94
2021/12/19 05:05:05;;;;;;;5.78;2.95;;;;;;;5.99;100.00;101980.44;6066687;29;20053;-93
2021/12/19 05:14:47;;;;;;;8.52;3.92;;;;;;;5.99;100.00;102000.16;6068781;29;20052;-93
2021/12/19 05:17:49;;;;;;;4.85;3.47;;;;;;;6.02;100.00;102012.88;6051141;29;20052;-93
2021/12/19 05:20:59;;;;;;;6.10;3.78;;;;;;;6.12;100.00;101980.81;6091217;29;20040;-94
2021/12/19 05:27:04;;;;;;;8.68;3.40;;;;;;;6.14;100.00;101973.88;6091715;29;20055;-94
2021/12/19 05:30:07;;;;;;;8.02;4.20;;;;;;;5.99;100.00;101964.16;6050531;29;20044;-94
2021/12/19 05:33:09;;;;;;;8.23;4.03;;;;;;;5.95;100.00;101963.44;6068514;29;20146;-93
2021/12/19 05:46:07;;;;;;;13.40;5.33;;;;;;;6.14;100.00;101971.31;6075765;29;19932;-94
2021/12/19 05:49:10;;;;;;;11.20;5.30;;;;;;;6.10;100.00;101956.06;6070360;29;20053;-94
2021/12/19 05:52:13;;;;;;;7.65;4.40;;;;;;;6.14;100.00;101966.16;6082368;29;20384;-94
2021/12/19 05:55:16;;;;;;;10.30;6.28;;;;;;;6.09;100.00;101955.22;6057643;29;20078;-94
2021/12/19 05:58:18;;;;;;;13.40;5.88;;;;;;;6.19;100.00;101955.72;6047105;29;20117;-94
2021/12/19 06:01:20;;;;;;;10.82;5.65;;;;;;;6.13;100.00;101950.78;6065428;29;20061;-94
2021/12/19 06:04:22;;;;;;;13.25;7.00;;;;;;;6.08;100.00;101953.53;6071383;29;20054;-93
2021/12/19 06:07:25;;;;;;;16.52;6.20;;;;;;;6.14;100.00;101962.78;6070164;29;20053;-94
2021/12/19 06:10:28;;;;;;;11.93;6.53;;;;;;;6.16;100.00;101948.97;6049295;29;20085;-94
2021/12/19 06:13:30;;;;;;;14.23;6.47;;;;;;;6.11;100.00;101957.72;6093446;29;20059;-93
2021/12/19 06:16:32;;;;;;;14.77;7.60;;;;;;;6.10;100.00;101941.47;6069001;29;20044;-94
2021/12/19 06:19:36;;;;;;;20.15;7.18;;;;;;;6.04;100.00;101931.44;6069950;29;20055;-93
2021/12/19 06:22:39;;;;;;;11.93;6.05;;;;;;;6.07;100.00;101926.16;6040015;29;20792;-93
2021/12/19 06:25:45;;;;;;;12.13;6.05;;;;;;;6.09;100.00;101933.78;6091102;29;20051;-93
2021/12/19 06:28:47;;;;;;;19.58;6.32;;;;;;;6.12;100.00;101933.72;6078398;29;20044;-94
2021/12/19 06:31:49;;;;;;;14.88;7.03;;;;;;;6.10;100.00;101940.63;6075794;29;20552;-94
2021/12/19 06:34:51;;;;;;;14.75;6.57;;;;;;;6.13;100.00;101932.78;6061101;29;20049;-94
2021/12/19 06:37:54;;;;;;;17.23;6.82;;;;;;;6.04;100.00;101928.84;6066439;29;20102;-93
2021/12/19 06:40:56;;;;;;;14.88;6.15;;;;;;;6.11;100.00;101925.16;6075340;29;20124;-93
2021/12/19 06:43:58;;;;;;;13.95;6.65;;;;;;;6.11;100.00;101922.59;6076634;29;20073;-94
2021/12/19 06:47:01;;;;;;;15.65;5.70;;;;;;;6.11;100.00;101932.88;6064029;29;20049;-94
2021/12/19 06:50:05;;;;;;;10.07;5.30;;;;;;;6.16;100.00;101925.81;6054601;29;20049;-94
2021/12/19 06:53:07;;;;;;;13.48;5.20;;;;;;;6.13;100.00;101918.19;6083992;29;20092;-93
2021/12/19 06:56:10;;;;;;;10.90;5.35;;;;;;;6.15;100.00;101911.28;6077308;29;20040;-93
2021/12/19 06:59:12;;;;;;;11.80;5.40;;;;;;;6.09;100.00;101911.53;6083139;29;20494;-94
2021/12/19 07:02:16;;;;;;;20.90;5.75;;;;;;;6.06;100.00;101901.34;6064021;29;20052;-94
2021/12/19 07:05:19;;;;;;;14.27;5.30;;;;;;;6.00;100.00;101902.41;6061362;29;20263;-93
2021/12/19 07:08:34;;;;;;;9.23;5.18;;;;;;;6.02;100.00;101905.75;6062799;29;20056;-93
2021/12/19 07:11:36;;;;;;;12.60;5.13;;;;;;;6.05;100.00;101899.66;6067703;29;20057;-94
2021/12/19 07:14:38;;;;;;;12.30;5.40;;;;;;;6.02;100.00;101897.22;6066245;29;20057;-94
2021/12/19 07:17:40;;;;;;;13.07;4.90;;;;;;;5.99;100.00;101905.88;6057001;29;20048;-93
2021/12/19 07:20:43;;;;;;;7.93;4.32;;;;;;;6.00;100.00;101899.84;6048106;29;20069;-93
2021/12/19 07:23:45;;;;;;;9.95;4.28;;;;;;;6.00;100.00;101884.41;6040725;29;20056;-93
2021/12/19 07:26:48;;;;;;;9.95;4.75;;;;;;;6.00;100.00;101883.59;6066122;29;20102;-93
2021/12/19 07:29:49;;;;;;;8.30;4.35;;;;;;;6.02;100.00;101881.81;6076962;29;20048;-93
2021/12/19 07:32:53;;;;;;;10.57;4.13;;;;;;;6.02;100.00;101879.22;6065146;29;20398;-94
2021/12/19 07:35:59;;;;;;;7.40;4.15;;;;;;;5.99;100.00;101893.03;6069201;29;20064;-93
2021/12/19 07:39:08;;;;;;;9.50;3.67;;;;;;;6.04;100.00;101882.59;6050163;29;20037;-94
2021/12/19 07:42:12;;;;;;;7.20;3.33;;;;;;;6.02;100.00;101894.66;6072335;29;20096;-93
2021/12/19 07:45:16;;;;;;;7.05;3.92;;;;;;;5.96;100.00;101866.59;6060894;29;20160;-93
2021/12/19 07:48:31;;;;;;;7.70;3.97;;;;;;;5.99;100.00;101871.66;6047898;29;20076;-93
2021/12/19 07:51:33;;;;;;;6.50;3.20;;;;;;;5.89;100.00;101872.81;6075673;29;20049;-93
2021/12/19 07:54:35;;;;;;;8.77;2.72;;;;;;;5.91;100.00;101864.16;6056100;29;20624;-93
2021/12/19 07:57:37;;;;;;;8.90;2.97;;;;;;;5.89;100.00;101873.69;6041325;29;20064;-94
2021/12/19 08:00:39;;;;;;;9.90;2.88;;;;;;;5.92;100.00;101862.47;6040440;29;20052;-93
2021/12/19 08:03:41;;;;;;;7.43;2.85;;;;;;;5.89;100.00;101855.72;6041702;29;20041;-93
2021/12/19 08:06:43;;;;;;;8.15;3.40;;;;;;;5.90;100.00;101870.22;6049209;29;20432;-94
2021/12/19 08:13:07;;;;;;;9.32;3.42;;;;;;;5.81;100.00;101867.97;6059709;29;20049;-93
2021/12/19 08:16:09;;;;;;;5.95;2.50;;;;;;;5.83;100.00;101856.75;6052021;29;20224;-93
2021/12/19 08:19:12;;;;;;;5.57;2.90;;;;;;;5.78;100.00;101853.50;6025506;29;20057;-93
2021/12/19 08:22:14;;;;;;;10.70;4.05;;;;;;;5.82;100.00;101854.25;6067628;29;20055;-93
2021/12/19 08:25:17;;;;;;;10.40;3.40;;;;;;;5.90;100.00;101861.69;6070006;29;20410;-93
2021/12/19 08:28:19;;;;;;;8.73;3.25;;;;;;;5.87;100.00;101846.38;6056027;29;20164;-93
2021/12/19 08:31:21;;;;;;;8.18;3.85;;;;;;;5.90;100.00;101843.69;6028667;29;20053;-93
2021/12/19 08:34:23;;;;;;;6.78;3.47;;;;;;;5.93;100.00;101846.13;6068144;29;20076;-93
2021/12/19 08:37:25;;;;;;;8.30;3.70;;;;;;;5.88;100.00;101843.72;6027182;29;20427;-93
2021/12/19 08:40:28;;;;;;;8.43;3.63;;;;;;;5.93;100.00;101841.81;6039410;29;20064;-93
2021/12/19 08:43:31;;;;;;;6.88;3.55;;;;;;;5.95;100.00;101844.38;6067957;29;20041;-92
2021/12/19 08:46:35;;;;;;;7.80;4.28;;;;;;;5.97;100.00;101845.16;6066217;29;20041;-93
2021/12/19 08:49:39;;;;;;;12.30;5.40;;;;;;;6.02;100.00;101843.25;6047957;29;20040;-93
2021/12/19 08:52:42;;;;;;;9.57;4.32;;;;;;;5.97;100.00;101827.16;6021847;29;20037;-93
2021/12/19 08:55:45;;;;;;;7.45;3.92;;;;;;;6.06;100.00;101844.78;6043440;29;20036;-93
2021/12/19 08:58:47;;;;;;;7.93;4.38;;;;;;;5.99;100.00;101853.66;6057516;29;20045;-93
2021/12/19 09:01:50;;;;;;;8.15;4.30;;;;;;;6.10;100.00;101842.94;6031923;29;20072;-93
2021/12/19 09:04:52;;;;;;;9.45;4.10;;;;;;;6.10;100.00;101830.09;6057077;29;20096;-93
2021/12/19 09:07:54;;;;;;;9.77;3.88;;;;;;;6.19;100.00;101828.00;6085208;29;20044;-92
2021/12/19 09:10:57;;;;;;;9.73;3.85;;;;;;;6.12;100.00;101836.84;6077268;29;20049;-92
2021/12/19 09:14:00;;;;;;;14.18;4.95;;;;;;;6.16;100.00;101838.41;6055757;29;20052;-93
2021/12/19 09:17:03;;;;;;;8.23;3.88;;;;;;;6.17;100.00;101840.06;6035329;29;20133;-93
2021/12/19 09:20:07;;;;;;;10.65;4.85;;;;;;;6.01;100.00;101839.00;6042492;29;20777;-93
2021/12/19 09:23:11;;;;;;;8.73;5.22;;;;;;;5.99;100.00;101839.06;6064594;29;20467;-92
2021/12/19 09:26:13;;;;;;;9.20;4.25;;;;;;;6.01;100.00;101834.72;6056282;29;20044;-93
2021/12/19 09:29:15;;;;;;;9.80;4.50;;;;;;;6.04;100.00;101836.31;6034063;29;20033;-92
2021/12/19 09:32:18;;;;;;;12.13;4.38;;;;;;;6.04;100.00;101834.59;6031506;29;20132;-92
2021/12/19 09:35:20;;;;;;;11.48;4.75;;;;;;;6.11;100.00;101842.91;6037743;29;20048;-92
2021/12/19 09:38:23;;;;;;;11.35;5.05;;;;;;;6.10;100.00;101841.22;6050552;29;20500;-93
2021/12/19 09:41:32;;;;;;;11.30;4.88;;;;;;;6.14;100.00;101840.19;6034215;29;20056;-93
2021/12/19 09:44:35;;;;;;;12.57;4.45;;;;;;;6.09;100.00;101841.25;6054396;29;20602;-93
2021/12/19 09:47:44;;;;;;;9.80;3.80;;;;;;;6.13;100.00;101828.22;6034972;29;20047;-93
2021/12/19 09:50:48;;;;;;;8.07;3.75;;;;;;;6.07;100.00;101827.66;6036948;29;20037;-93
2021/12/19 09:53:50;;;;;;;6.85;4.03;;;;;;;6.14;100.00;101823.94;6022409;29;20045;-93
2021/12/19 09:56:52;;;;;;;7.68;3.22;;;;;;;6.16;100.00;101824.69;6046820;29;20495;-93
2021/12/19 09:59:55;;;;;;;8.60;3.17;;;;;;;6.13;100.00;101801.69;6045048;29;20045;-88
2021/12/19 10:02:57;;;;;;;7.13;3.10;;;;;;;6.10;100.00;101801.81;6059904;29;20605;-87
2021/12/19 10:06:26;;;;;;;9.80;3.88;;;;;;;6.16;100.00;101805.00;6053627;29;20061;-87
2021/12/19 10:09:28;;;;;;;5.50;3.20;;;;;;;6.12;100.00;101811.16;6067777;29;20507;-90
2021/12/19 10:12:48;;;;;;;10.05;3.22;;;;;;;6.11;100.00;101808.63;6039439;29;20060;-90
2021/12/19 10:15:51;;;;;;;12.13;4.17;;;;;;;6.16;100.00;101805.00;6035959;29;20515;-91
2021/12/19 10:18:57;;;;;;;5.63;3.30;;;;;;;6.13;100.00;101793.97;6053202;29;20414;-91
2021/12/19 10:22:00;;;;;;;9.82;3.97;;;;;;;6.07;100.00;101789.94;6025286;29;20173;-91
2021/12/19 10:25:18;;;;;;;6.53;3.45;;;;;;;6.02;100.00;101789.28;6062793;29;20049;-91
2021/12/19 10:28:20;;;;;;;7.90;3.80;;;;;;;5.98;100.00;101792.84;6040691;29;20061;-91
2021/12/19 10:31:25;;;;;;;8.38;3.25;;;;;;;5.91;100.00;101781.94;6046240;29;20466;-90
2021/12/19 10:34:26;;;;;;;8.40;4.15;;;;;;;5.98;100.00;101773.13;6070844;29;20041;-91
2021/12/19 10:37:34;;;;;;;10.40;3.83;;;;;;;6.01;100.00;101774.72;6066188;29;20208;-90
2021/12/19 10:40:36;;;;;;;7.85;3.03;;;;;;;6.03;100.00;101763.50;6057207;29;20143;-90
2021/12/19 10:44:00;;;;;;;8.73;3.20;;;;;;;6.01;100.00;101767.03;6027309;29;20048;-89
2021/12/19 10:47:27;;;;;;;10.43;3.50;;;;;;;6.00;100.00;101755.91;6048145;29;20052;-89
2021/12/19 10:51:02;;;;;;;7.22;3.33;;;;;;;5.97;100.00;101768.88;6043050;29;20086;-89
2021/12/19 10:54:07;;;;;;;5.82;3.22;;;;;;;5.98;100.00;101754.31;6038573;29;20049;-89
2021/12/19 10:57:12;;;;;;;5.25;2.88;;;;;;;5.85;100.00;101751.34;6014722;29;20519;-89
2021/12/19 11:00:26;;;;;;;5.80;2.58;;;;;;;5.88;100.00;101755.53;6023750;29;20175;-89
2021/12/19 11:03:51;;;;;;;6.60;2.55;;;;;;;5.92;100.00;101737.38;6041759;29;20074;-89
2021/12/19 11:06:59;;;;;;;7.60;2.75;;;;;;;5.88;100.00;101752.97;6025148;29;20529;-89
2021/12/19 11:10:01;;;;;;;7.60;2.30;;;;;;;5.92;100.00;101733.97;6030407;29;20049;-88
2021/12/19 11:13:19;;;;;;;5.72;2.13;;;;;;;5.96;100.00;101732.97;6038402;29;20491;-88
2021/12/19 11:16:21;;;;;;;6.72;2.30;;;;;;;6.01;100.00;101731.91;6018660;29;20124;-88
2021/12/19 11:19:25;;;;;;;6.47;2.47;;;;;;;6.02;100.00;101731.00;6032005;29;20045;-89
2021/12/19 11:22:47;;;;;;;4.53;2.65;;;;;;;5.99;100.00;101722.59;6038813;29;20051;-89
2021/12/19 11:25:50;;;;;;;6.65;3.10;;;;;;;5.96;100.00;101723.53;6042086;29;20044;-89
2021/12/19 11:28:55;;;;;;;5.43;2.88;;;;;;;5.97;100.00;101704.63;6039791;29;20045;-88
2021/12/19 11:32:04;;;;;;;5.35;3.33;;;;;;;6.00;100.00;101695.97;6022431;29;20514;-89
2021/12/19 11:35:26;;;;;;;7.30;2.85;;;;;;;5.94;100.00;101689.34;6026209;29;20393;-89
2021/12/19 11:38:30;;;;;;;7.30;2.40;;;;;;;5.95;100.00;101685.88;6046297;29;20045;-89
2021/12/19 11:41:35;;;;;;;7.70;2.55;;;;;;;5.90;100.00;101686.94;6033807;29;20574;-88
2021/12/19 11:48:33;;;;;;;6.20;2.80;;;;;;;5.91;100.00;101688.59;6035154;29;20563;-87
2021/12/19 11:51:35;;;;;;;3.53;2.47;;;;;;;5.92;100.00;101670.56;6037599;29;20465;-87
2021/12/19 11:54:37;;;;;;;3.88;1.92;;;;;;;5.90;100.00;101668.94;6042788;29;20042;-87
2021/12/19 11:57:40;;;;;;;6.45;1.95;;;;;;;5.98;100.00;101684.91;6045532;29;20056;-86
2021/12/19 12:00:50;;;;;;;4.13;2.30;;;;;;;6.04;100.00;101671.81;6048337;29;20132;-87
2021/12/19 12:04:00;;;;;;;5.87;2.17;;;;;;;6.03;100.00;101673.53;6036373;29;20045;-87
2021/12/19 12:07:04;;;;;;;6.78;2.70;;;;;;;5.99;100.00;101658.34;6025885;29;20317;-87
2021/12/19 12:10:06;;;;;;;5.90;2.55;;;;;;;6.00;100.00;101660.00;6027306;29;20516;-87
2021/12/19 12:13:26;;;;;;;6.80;2.30;;;;;;;5.97;100.00;101648.09;6015079;29;20055;-87
2021/12/19 12:16:39;;;;;;;5.35;2.30;;;;;;;5.97;100.00;101637.81;6049603;29;20033;-87
2021/12/19 12:19:57;;;;;;;6.70;2.30;;;;;;;5.92;100.00;101618.34;6046076;29;20613;-87
2021/12/19 12:23:07;;;;;;;9.05;2.80;;;;;;;5.98;100.00;101624.06;6010873;29;20276;-87
2021/12/19 12:26:39;;;;;;;6.25;2.88;;;;;;;6.06;100.00;101622.91;6042712;29;20044;-88
2021/12/19 12:29:41;;;;;;;6.53;2.30;;;;;;;6.02;100.00;101609.38;6038505;29;20045;-88
2021/12/19 12:32:44;;;;;;;4.57;2.17;;;;;;;5.95;100.00;101611.34;6024120;29;20052;-88
2021/12/19 12:35:49;;;;;;;5.28;2.72;;;;;;;5.97;100.00;101590.75;6020326;29;20160;-88
2021/12/19 12:38:52;;;;;;;6.03;2.60;;;;;;;6.01;100.00;101602.53;6039178;29;20056;-88
2021/12/19 12:42:03;;;;;;;7.18;2.30;;;;;;;6.06;100.00;101595.47;6027988;29;20052;-88
2021/12/19 12:45:06;;;;;;;5.43;2.50;;;;;;;6.05;100.00;101583.53;6035499;29;20079;-88
2021/12/19 12:48:43;;;;;;;9.30;2.40;;;;;;;6.04;100.00;101576.72;6028679;29;20053;-88
2021/12/19 12:51:58;;;;;;;8.95;2.78;;;;;;;6.03;100.00;101590.47;6058426;29;20049;-88
2021/12/19 12:55:04;;;;;;;5.90;2.33;;;;;;;6.01;100.00;101580.25;6035620;29;20048;-88
2021/12/19 12:58:16;;;;;;;5.63;2.00;;;;;;;5.97;100.00;101572.75;6046315;29;20523;-88
2021/12/19 13:01:31;;;;;;;8.63;2.35;;;;;;;6.03;100.00;101593.03;6026303;29;20053;-88
2021/12/19 13:04:33;;;;;;;6.30;2.03;;;;;;;6.07;100.00;101565.47;6038591;29;20128;-88
2021/12/19 13:07:35;;;;;;;9.43;2.38;;;;;;;6.08;100.00;101567.97;6021904;29;20060;-88
2021/12/19 13:10:38;;;;;;;6.78;2.28;;;;;;;6.14;100.00;101562.56;6019101;29;20071;-88
2021/12/19 13:13:40;;;;;;;5.32;2.30;;;;;;;6.11;100.00;101552.44;6034002;29;20052;-88
2021/12/19 13:16:55;;;;;;;7.88;2.60;;;;;;;6.10;100.00;101549.91;6032960;29;20132;-88
2021/12/19 13:20:27;;;;;;;8.15;2.50;;;;;;;6.15;100.00;101551.38;6028958;29;20045;-88
2021/12/19 13:23:29;;;;;;;9.43;2.40;;;;;;;6.14;100.00;101547.16;6046517;29;20643;-88
2021/12/19 13:26:38;;;;;;;12.25;3.38;;;;;;;6.04;100.00;101543.31;6036974;29;20092;-88
2021/12/19 13:29:42;;;;;;;14.07;3.05;;;;;;;6.07;100.00;101550.88;6039916;29;20064;-88
2021/12/19 13:33:04;;;;;;;8.80;2.55;;;;;;;6.09;100.00;101549.09;6052519;29;20042;-88
2021/12/19 13:36:06;;;;;;;7.88;2.63;;;;;;;6.14;100.00;101546.31;6030729;29;20451;-88
2021/12/19 13:39:20;;;;;;;8.18;3.28;;;;;;;6.10;100.00;101535.31;6067331;29;20378;-88
2021/12/19 13:42:46;;;;;;;8.40;2.42;;;;;;;5.97;100.00;101542.75;6041198;29;20056;-88
2021/12/19 13:45:53;;;;;;;7.05;3.05;;;;;;;6.10;100.00;101550.75;6034938;29;20130;-88
2021/12/19 13:48:55;;;;;;;4.95;2.22;;;;;;;6.09;100.00;101543.09;6039018;29;20048;-88
2021/12/19 13:52:00;;;;;;;8.48;2.30;;;;;;;6.02;100.00;101535.66;6042201;29;20069;-88
2021/12/19 13:55:12;;;;;;;8.90;2.77;;;;;;;5.97;100.00;101529.06;6019775;29;20496;-88
2021/12/19 13:58:16;;;;;;;12.23;2.60;;;;;;;5.92;100.00;101543.81;6050411;29;20846;-88
2021/12/19 14:01:38;;;;;;;5.47;2.90;;;;;;;5.95;100.00;101531.69;6049541;29;20105;-88
2021/12/19 14:04:41;;;;;;;9.95;2.58;;;;;;;5.97;100.00;101513.63;6029583;29;20170;-88
2021/12/19 14:07:43;;;;;;;8.27;2.30;;;;;;;5.97;100.00;101522.19;6053093;29;20045;-88
2021/12/19 14:10:58;;;;;;;7.63;2.60;;;;;;;5.99;100.00;101515.25;6041776;29;20052;-89
2021/12/19 14:14:12;;;;;;;8.73;2.42;;;;;;;5.95;100.00;101520.56;6023572;29;20060;-88
2021/12/19 14:17:14;;;;;;;8.40;3.08;;;;;;;5.95;100.00;101518.00;6053163;29;20092;-88
2021/12/19 14:20:16;;;;;;;5.95;2.67;;;;;;;6.00;100.00;101511.75;6052627;29;20064;-88
2021/12/19 14:23:21;;;;;;;9.52;3.40;;;;;;;5.89;100.00;101507.94;6055388;29;20518;-88
2021/12/19 14:26:29;;;;;;;7.25;2.22;;;;;;;5.94;100.00;101504.34;6034046;29;20076;-88
2021/12/19 14:29:31;;;;;;;9.45;2.88;;;;;;;5.94;100.00;101511.22;6038759;29;20041;-89
2021/12/19 14:32:45;;;;;;;8.63;2.88;;;;;;;5.90;100.00;101518.16;6046026;29;20041;-88
2021/12/19 14:35:51;;;;;;;14.05;3.35;;;;;;;5.94;100.00;101506.06;6041156;29;20503;-88
2021/12/19 14:39:00;;;;;;;7.20;2.85;;;;;;;5.91;100.00;101519.00;6027125;29;20483;-89
2021/12/19 14:42:15;;;;;;;6.15;2.17;;;;;;;5.85;100.00;101532.97;6039169;29;20049;-88
2021/12/19 14:45:33;;;;;;;7.63;2.50;;;;;;;5.94;100.00;101521.50;6025953;29;20076;-89
2021/12/19 14:48:39;;;;;;;14.30;3.08;;;;;;;5.88;100.00;101506.28;6025650;29;20057;-88
2021/12/19 14:52:04;;;;;;;10.30;2.60;;;;;;;5.93;100.00;101506.94;6024438;29;20439;-88
2021/12/19 14:55:11;;;;;;;11.30;2.97;;;;;;;5.86;100.00;101506.34;6021964;29;20497;-88
2021/12/19 14:58:14;;;;;;;8.65;2.40;;;;;;;5.80;100.00;101486.91;6042452;29;20049;-89
2021/12/19 15:01:20;;;;;;;14.52;3.22;;;;;;;5.78;100.00;101481.00;6042480;29;20085;-88
2021/12/19 15:04:23;;;;;;;5.68;2.75;;;;;;;5.74;100.00;101487.19;6042150;29;20049;-88
2021/12/19 15:07:26;;;;;;;8.77;2.40;;;;;;;5.84;100.00;101461.94;6020800;29;20053;-88
2021/12/19 15:10:28;;;;;;;10.15;2.58;;;;;;;5.87;100.00;101466.09;6040164;29;20051;-88
2021/12/19 15:13:30;;;;;;;4.28;2.03;;;;;;;5.85;100.00;101470.47;6042579;29;20574;-89
2021/12/19 15:16:36;;;;;;;7.22;2.60;;;;;;;5.84;100.00;101461.94;6041606;29;20041;-88
2021/12/19 15:19:38;;;;;;;8.18;2.40;;;;;;;5.81;100.00;101454.34;6023043;29;20385;-89
2021/12/19 15:22:43;;;;;;;10.50;3.00;;;;;;;5.85;100.00;101457.63;6039149;29;20057;-89
2021/12/19 15:25:47;;;;;;;8.07;2.25;;;;;;;5.85;100.00;101458.44;6039797;29;20052;-89
2021/12/19 15:28:52;;;;;;;9.98;2.67;;;;;;;5.79;100.00;101456.16;6047734;29;20061;-89
2021/12/19 15:31:56;;;;;;;14.75;3.08;;;;;;;5.81;100.00;101450.06;6051192;29;20052;-88
2021/12/19 15:34:58;;;;;;;9.35;3.22;;;;;;;5.77;100.00;101453.66;6021508;29;20676;-89